createdAt,value
2022-10-26T00:29:34.568Z,0
2022-10-26T00:30:14.970Z,0
2022-10-26T00:30:55.467Z,0
2022-10-26T00:31:35.994Z,0
2022-10-26T00:32:16.463Z,0
2022-10-26T00:32:56.911Z,0
2022-10-26T00:33:37.418Z,0
2022-10-26T00:34:17.857Z,0
2022-10-26T00:35:02.976Z,0
2022-10-26T00:35:45.787Z,0
2022-10-26T00:36:19.341Z,0
2022-10-26T00:43:04.159Z,0
2022-10-26T00:43:44.678Z,0
2022-10-26T00:44:25.101Z,0
2022-10-26T00:45:05.628Z,0
2022-10-26T00:45:46.043Z,0
2022-10-26T00:46:26.608Z,0
2022-10-26T00:47:07.050Z,0
2022-10-26T00:47:47.581Z,0
2022-10-26T00:48:28.018Z,0
2022-10-26T00:49:08.518Z,0
2022-10-26T00:49:48.970Z,0
2022-10-26T00:57:14.320Z,0
2022-10-26T00:57:54.822Z,0
2022-10-26T00:58:35.278Z,0
2022-10-26T00:59:15.778Z,0
2022-10-26T00:59:56.229Z,0
2022-10-26T01:00:36.803Z,0
2022-10-26T01:01:17.252Z,0
2022-10-26T01:01:57.719Z,0
2022-10-26T01:02:38.214Z,0
2022-10-26T01:03:18.743Z,0
2022-10-26T01:03:59.325Z,0
2022-10-26T01:10:44.081Z,0
2022-10-26T01:11:24.598Z,0
2022-10-26T01:12:05.092Z,0
2022-10-26T01:12:45.564Z,0
2022-10-26T01:13:26.101Z,0
2022-10-26T01:14:07.524Z,0
2022-10-26T01:14:47.974Z,0
2022-10-26T01:15:28.464Z,0
2022-10-26T01:16:09.049Z,0
2022-10-26T01:23:34.355Z,0
2022-10-26T01:24:14.798Z,0
2022-10-26T01:24:56.074Z,0
2022-10-26T01:25:37.346Z,0
2022-10-26T01:28:51.207Z,0
2022-10-26T01:29:31.534Z,0
2022-10-26T01:30:12.001Z,0
2022-10-26T01:30:52.531Z,0
2022-10-26T01:31:33.052Z,0
2022-10-26T01:32:13.537Z,0
2022-10-26T01:32:54.069Z,0
2022-10-26T01:33:34.531Z,0
2022-10-26T01:34:15.029Z,0
2022-10-26T01:34:55.577Z,0
2022-10-26T01:42:20.896Z,0
2022-10-26T01:43:01.348Z,0
2022-10-26T01:43:41.857Z,0
2022-10-26T01:44:22.346Z,0
2022-10-26T01:45:02.885Z,0
2022-10-26T01:45:43.416Z,0
2022-10-26T01:46:23.901Z,0
2022-10-26T01:47:04.392Z,0
2022-10-26T01:47:44.857Z,0
2022-10-26T01:48:25.355Z,0
2022-10-26T01:49:05.820Z,0
2022-10-26T01:56:31.060Z,0
2022-10-26T01:57:11.513Z,0
2022-10-26T01:57:52.047Z,0
2022-10-26T01:58:32.520Z,0
2022-10-26T01:59:13.003Z,0
2022-10-26T01:59:53.472Z,0
2022-10-26T02:00:33.942Z,0
2022-10-26T02:01:14.528Z,0
2022-10-26T02:01:54.930Z,0
2022-10-26T02:02:35.418Z,0
2022-10-26T02:03:15.922Z,0
2022-10-26T02:10:00.904Z,0
2022-10-26T02:10:41.415Z,0
2022-10-26T02:11:21.925Z,0
2022-10-26T02:12:02.363Z,0
2022-10-26T02:12:42.840Z,0
2022-10-26T02:13:23.344Z,0
2022-10-26T02:14:03.826Z,0
2022-10-26T02:14:44.261Z,0
2022-10-26T02:15:24.713Z,0
2022-10-26T02:16:05.233Z,0
2022-10-26T02:24:11.085Z,0
2022-10-26T02:24:51.574Z,0
2022-10-26T02:25:32.055Z,0
2022-10-26T02:26:12.511Z,0
2022-10-26T02:26:52.975Z,0
2022-10-26T02:27:33.442Z,0
2022-10-26T02:28:13.956Z,0
2022-10-26T02:28:54.473Z,0
2022-10-26T02:30:15.454Z,0
2022-10-26T02:30:55.904Z,0
2022-10-26T02:37:40.833Z,0
2022-10-26T02:38:21.350Z,0
2022-10-26T02:39:01.864Z,0
2022-10-26T02:40:22.841Z,0
2022-10-26T02:41:03.351Z,0
2022-10-26T02:41:43.778Z,0
2022-10-26T02:42:24.274Z,0
2022-10-26T02:43:04.744Z,0
2022-10-26T02:43:45.257Z,0
2022-10-26T02:44:25.745Z,0
2022-10-26T02:51:51.039Z,0
2022-10-26T02:52:31.503Z,0
2022-10-26T02:53:11.998Z,0
2022-10-26T02:53:52.455Z,0
2022-10-26T02:54:32.941Z,0
2022-10-26T02:55:13.403Z,0
2022-10-26T02:55:53.893Z,0
2022-10-26T02:56:34.373Z,0
2022-10-26T02:57:14.854Z,0
2022-10-26T02:57:55.333Z,0
2022-10-26T02:58:35.785Z,0
2022-10-26T03:06:01.042Z,0
2022-10-26T03:06:41.482Z,0
2022-10-26T03:07:21.955Z,0
2022-10-26T03:08:02.464Z,0
2022-10-26T03:08:42.946Z,0
2022-10-26T03:09:24.789Z,0
2022-10-26T03:10:03.888Z,0
2022-10-26T03:10:44.352Z,0
2022-10-26T03:11:24.824Z,0
2022-10-26T03:12:05.333Z,0
2022-10-26T03:12:45.846Z,0
2022-10-26T03:19:30.959Z,0
2022-10-26T03:20:12.307Z,0
2022-10-26T03:20:53.684Z,0
2022-10-26T03:21:34.574Z,0
2022-10-26T03:24:59.994Z,0
2022-10-26T03:25:41.083Z,0
2022-10-26T03:26:21.954Z,0
2022-10-26T03:27:02.928Z,0
2022-10-26T03:27:43.418Z,0
2022-10-26T03:28:24.206Z,0
2022-10-26T03:32:29.872Z,0
2022-10-26T03:33:11.371Z,0
2022-10-26T03:33:53.246Z,0
2022-10-26T03:34:34.184Z,0
2022-10-26T03:35:14.753Z,0
2022-10-26T03:40:00.139Z,0
2022-10-26T03:40:41.345Z,0
2022-10-26T03:41:22.263Z,0
2022-10-26T03:42:02.950Z,0
2022-10-26T03:42:43.764Z,0
2022-10-26T03:46:09.724Z,0
2022-10-26T03:46:50.671Z,0
2022-10-26T03:47:32.139Z,0
2022-10-26T03:48:13.894Z,0
2022-10-26T03:48:55.060Z,0
2022-10-26T03:52:20.407Z,0
2022-10-26T03:53:01.122Z,0
2022-10-26T03:53:42.186Z,0
2022-10-26T03:54:23.306Z,0
2022-10-26T03:57:49.603Z,0
2022-10-26T04:00:19.563Z,0
2022-10-26T04:01:00.208Z,0
2022-10-26T04:01:40.854Z,0
2022-10-26T04:02:21.250Z,0
2022-10-26T04:03:01.745Z,0
2022-10-26T04:03:42.240Z,0
2022-10-26T04:04:22.776Z,0
2022-10-26T04:05:03.209Z,0
2022-10-26T04:05:43.732Z,0
2022-10-26T04:06:24.191Z,0
2022-10-26T04:12:29.451Z,0
2022-10-26T04:13:09.931Z,0
2022-10-26T04:13:50.402Z,0
2022-10-26T04:14:30.900Z,0
2022-10-26T04:15:11.390Z,0
2022-10-26T04:15:51.926Z,0
2022-10-26T04:16:33.268Z,0
2022-10-26T04:17:12.919Z,0
2022-10-26T04:17:53.416Z,0
2022-10-26T04:18:33.927Z,0
2022-10-26T04:19:14.369Z,0
2022-10-26T04:25:19.635Z,0
2022-10-26T04:26:00.007Z,0
2022-10-26T04:26:40.542Z,0
2022-10-26T04:27:21.846Z,0
2022-10-26T04:28:02.290Z,0
2022-10-26T04:28:42.879Z,0
2022-10-26T04:29:23.309Z,0
2022-10-26T04:30:03.878Z,0
2022-10-26T04:30:44.343Z,0
2022-10-26T04:34:44.184Z,0
2022-10-26T04:35:24.776Z,0
2022-10-26T04:36:05.774Z,0
2022-10-26T04:36:46.957Z,0
2022-10-26T04:38:52.094Z,0
2022-10-26T04:39:33.164Z,0
2022-10-26T04:40:14.276Z,0
2022-10-26T04:44:20.422Z,0
2022-10-26T04:45:01.441Z,0
2022-10-26T04:45:42.462Z,0
2022-10-26T04:46:23.531Z,0
2022-10-26T04:47:05.327Z,0
2022-10-26T04:49:17.129Z,0
2022-10-26T04:51:45.679Z,0
2022-10-26T04:52:26.772Z,0
2022-10-26T04:53:07.323Z,0
2022-10-26T04:53:47.753Z,0
2022-10-26T04:54:28.266Z,0
2022-10-26T04:55:08.730Z,0
2022-10-26T04:55:49.343Z,0
2022-10-26T04:56:29.881Z,0
2022-10-26T04:57:10.426Z,0
2022-10-26T05:03:55.618Z,0
2022-10-26T05:04:36.043Z,0
2022-10-26T05:05:16.549Z,0
2022-10-26T05:05:57.028Z,0
2022-10-26T05:06:38.100Z,0
2022-10-26T05:07:18.855Z,0
2022-10-26T05:07:59.381Z,0
2022-10-26T05:08:39.766Z,0
2022-10-26T05:09:20.249Z,0
2022-10-26T05:15:25.208Z,0
2022-10-26T05:16:05.753Z,0
2022-10-26T05:16:46.191Z,0
2022-10-26T05:17:26.702Z,0
2022-10-26T05:18:07.183Z,0
2022-10-26T05:18:47.733Z,0
2022-10-26T05:19:28.288Z,0
2022-10-26T05:20:11.215Z,0
2022-10-26T05:24:55.511Z,0
2022-10-26T05:25:35.990Z,0
2022-10-26T05:26:16.584Z,0
2022-10-26T05:26:56.945Z,0
2022-10-26T05:27:38.536Z,0
2022-10-26T05:28:20.667Z,0
2022-10-26T05:34:45.760Z,0
2022-10-26T05:35:27.203Z,0
2022-10-26T05:36:07.945Z,0
2022-10-26T05:36:49.464Z,0
2022-10-26T05:37:34.465Z,0
2022-10-26T05:38:15.615Z,0
2022-10-26T05:38:56.447Z,0
2022-10-26T05:39:36.771Z,0
2022-10-26T05:40:17.776Z,0
2022-10-26T05:40:58.886Z,0
2022-10-26T05:43:07.042Z,0
2022-10-26T05:43:47.968Z,0
2022-10-26T05:47:14.464Z,0
2022-10-26T05:47:57.421Z,0
2022-10-26T05:48:37.913Z,0
2022-10-26T05:49:18.544Z,0
2022-10-26T05:52:43.373Z,0
2022-10-26T06:31:43.796Z,16
2022-10-26T06:32:24.617Z,16
2022-10-26T06:33:18.177Z,16
2022-10-26T06:33:50.762Z,20
2022-10-26T06:34:31.807Z,20
2022-10-26T06:35:53.943Z,20
2022-10-26T06:36:36.073Z,24
2022-10-26T06:37:21.399Z,24
2022-10-26T06:38:13.913Z,24
2022-10-26T06:39:02.149Z,20
2022-10-26T06:42:02.178Z,24
2022-10-26T06:42:42.769Z,24
2022-10-26T06:43:23.649Z,24
2022-10-26T06:44:04.331Z,24
2022-10-26T06:44:45.446Z,24
2022-10-26T06:45:25.973Z,24
2022-10-26T06:49:26.645Z,40
2022-10-26T06:50:07.015Z,44
2022-10-26T06:50:47.544Z,44
2022-10-26T06:51:28.185Z,52
2022-10-26T06:52:08.764Z,52
2022-10-26T06:52:49.368Z,60
2022-10-26T06:53:29.844Z,64
2022-10-26T06:54:10.452Z,64
2022-10-26T06:54:50.982Z,72
2022-10-26T07:01:14.680Z,80
2022-10-26T07:01:55.847Z,88
2022-10-26T07:02:36.411Z,108
2022-10-26T07:03:16.861Z,128
2022-10-26T07:03:57.329Z,128
2022-10-26T07:04:37.903Z,124
2022-10-26T07:05:18.388Z,124
2022-10-26T07:10:04.133Z,244
2022-10-26T07:10:44.783Z,264
2022-10-26T07:11:25.309Z,296
2022-10-26T07:12:05.851Z,328
2022-10-26T07:12:46.408Z,364
2022-10-26T07:13:26.959Z,376
2022-10-26T07:14:07.418Z,372
2022-10-26T07:14:47.974Z,364
2022-10-26T07:15:28.529Z,356
2022-10-26T07:19:33.508Z,204
2022-10-26T07:20:14.230Z,192
2022-10-26T07:20:54.758Z,184
2022-10-26T07:21:35.319Z,184
2022-10-26T07:22:16.786Z,204
2022-10-26T07:25:57.126Z,340
2022-10-26T07:26:37.636Z,364
2022-10-26T07:27:18.149Z,380
2022-10-26T07:27:58.608Z,388
2022-10-26T07:28:39.142Z,388
2022-10-26T07:29:19.785Z,388
2022-10-26T07:30:00.284Z,384
2022-10-26T07:30:40.763Z,384
2022-10-26T07:31:21.361Z,392
2022-10-26T07:32:01.926Z,416
2022-10-26T07:37:26.627Z,716
2022-10-26T07:38:07.184Z,728
2022-10-26T07:38:48.000Z,780
2022-10-26T07:39:28.320Z,784
2022-10-26T07:40:10.190Z,776
2022-10-26T07:43:37.422Z,1096
2022-10-26T07:44:17.130Z,1076
2022-10-26T07:44:57.685Z,880
2022-10-26T07:45:38.211Z,1044
2022-10-26T07:47:55.568Z,1052
2022-10-26T07:48:37.260Z,1068
2022-10-26T07:49:19.352Z,1076
2022-10-26T07:49:59.314Z,1092
2022-10-26T07:52:02.501Z,1116
2022-10-26T07:52:42.989Z,1112
2022-10-26T07:53:27.621Z,1112
2022-10-26T07:54:04.102Z,1112
2022-10-26T07:54:44.553Z,1112
2022-10-26T07:57:19.630Z,1120
2022-10-26T07:58:00.477Z,1120
2022-10-26T07:58:40.607Z,1116
2022-10-26T07:59:21.553Z,1116
2022-10-26T08:00:02.074Z,1112
2022-10-26T08:00:46.408Z,1116
2022-10-26T08:03:29.301Z,1108
2022-10-26T08:04:09.810Z,1108
2022-10-26T08:04:52.221Z,1108
2022-10-26T08:05:35.608Z,1108
2022-10-26T08:11:17.034Z,1132
2022-10-26T08:12:01.260Z,1136
2022-10-26T08:12:41.911Z,1140
2022-10-26T08:13:23.224Z,1144
2022-10-26T08:16:07.626Z,1156
2022-10-26T08:16:47.472Z,1152
2022-10-26T08:17:28.608Z,1160
2022-10-26T08:18:09.377Z,1160
2022-10-26T08:18:50.036Z,1160
2022-10-26T08:19:30.438Z,1164
2022-10-26T08:20:11.043Z,1168
2022-10-26T08:23:36.174Z,1052
2022-10-26T08:24:16.362Z,1160
2022-10-26T08:24:56.917Z,1400
2022-10-26T08:25:38.081Z,1372
2022-10-26T08:26:18.661Z,1284
2022-10-26T08:26:59.199Z,1288
2022-10-26T08:27:39.762Z,1292
2022-10-26T08:28:20.358Z,1308
2022-10-26T08:29:00.993Z,1336
2022-10-26T08:34:26.980Z,1060
2022-10-26T08:35:07.505Z,1072
2022-10-26T08:39:39.683Z,916
2022-10-26T08:40:20.721Z,872
2022-10-26T08:41:01.210Z,856
2022-10-26T08:41:41.877Z,860
2022-10-26T08:42:22.734Z,864
2022-10-26T08:43:03.405Z,876
2022-10-26T08:48:28.678Z,804
2022-10-26T08:49:09.250Z,796
2022-10-26T08:52:48.136Z,900
2022-10-26T08:53:30.186Z,956
2022-10-26T08:54:10.880Z,968
2022-10-26T08:54:52.240Z,1008
2022-10-26T08:59:14.756Z,1552
2022-10-26T08:59:55.439Z,1608
2022-10-26T09:02:13.454Z,1664
2022-10-26T09:02:56.758Z,1644
2022-10-26T09:03:37.300Z,1632
2022-10-26T09:04:17.932Z,1648
2022-10-26T09:05:39.322Z,1540
2022-10-26T09:06:19.992Z,1436
2022-10-26T09:07:00.321Z,1368
2022-10-26T09:07:40.887Z,1308
2022-10-26T09:08:21.645Z,1244
2022-10-26T09:09:02.555Z,1196
2022-10-26T09:09:43.085Z,1156
2022-10-26T09:10:23.741Z,1124
2022-10-26T09:11:04.319Z,1100
2022-10-26T09:13:09.886Z,1056
2022-10-26T09:13:52.120Z,1048
2022-10-26T09:14:31.875Z,1040
2022-10-26T09:15:12.777Z,1032
2022-10-26T09:15:53.473Z,1032
2022-10-26T09:16:35.151Z,1028
2022-10-26T09:18:39.584Z,1012
2022-10-26T09:20:00.293Z,1012
2022-10-26T09:20:41.873Z,1016
2022-10-26T09:21:23.246Z,816
2022-10-26T09:22:04.193Z,892
2022-10-26T09:26:09.427Z,1016
2022-10-26T09:26:50.104Z,1020
2022-10-26T09:27:30.774Z,1020
2022-10-26T09:28:12.175Z,1016
2022-10-26T09:28:52.725Z,1016
2022-10-26T09:29:33.708Z,1016
2022-10-26T09:32:52.708Z,1012
2022-10-26T09:33:33.335Z,1008
2022-10-26T09:34:13.857Z,1004
2022-10-26T09:34:54.297Z,1000
2022-10-26T09:39:39.158Z,976
2022-10-26T09:40:21.338Z,976
2022-10-26T09:41:03.438Z,972
2022-10-26T09:43:07.995Z,968
2022-10-26T09:44:30.221Z,956
2022-10-26T09:45:13.287Z,972
2022-10-26T09:50:16.373Z,952
2022-10-26T09:51:00.472Z,960
2022-10-26T09:51:39.034Z,956
2022-10-26T09:52:19.538Z,956
2022-10-26T09:57:03.826Z,956
2022-10-26T09:57:44.425Z,960
2022-10-26T09:58:24.940Z,956
2022-10-26T10:01:45.224Z,964
2022-10-26T10:02:25.631Z,960
2022-10-26T10:03:07.300Z,960
2022-10-26T10:03:47.507Z,960
2022-10-26T10:07:24.002Z,960
2022-10-26T10:08:04.560Z,960
2022-10-26T10:08:45.203Z,960
2022-10-26T10:09:25.752Z,960
2022-10-26T10:10:06.517Z,956
2022-10-26T10:13:33.054Z,944
2022-10-26T10:14:14.374Z,944
2022-10-26T10:14:57.210Z,944
2022-10-26T10:20:22.754Z,932
2022-10-26T10:21:03.208Z,928
2022-10-26T10:21:44.112Z,924
2022-10-26T10:22:25.142Z,920
2022-10-26T10:23:07.867Z,920
2022-10-26T10:25:11.883Z,916
2022-10-26T10:28:04.239Z,912
2022-10-26T10:28:48.007Z,912
2022-10-26T10:29:30.609Z,912
2022-10-26T10:30:11.778Z,908
2022-10-26T10:30:53.612Z,912
2022-10-26T10:31:37.760Z,912
2022-10-26T10:32:20.269Z,920
2022-10-26T10:33:02.267Z,920
2022-10-26T10:36:17.997Z,912
2022-10-26T10:36:58.241Z,908
2022-10-26T10:37:38.788Z,908
2022-10-26T10:38:19.420Z,888
2022-10-26T10:39:00.089Z,892
2022-10-26T10:40:21.100Z,888
2022-10-26T10:41:01.697Z,884
2022-10-26T10:41:42.380Z,904
2022-10-26T10:47:07.622Z,884
2022-10-26T10:47:48.875Z,876
2022-10-26T10:48:29.570Z,896
2022-10-26T10:49:10.574Z,884
2022-10-26T10:49:51.152Z,896
2022-10-26T10:50:31.792Z,908
2022-10-26T10:51:12.318Z,900
2022-10-26T10:56:37.684Z,944
2022-10-26T10:57:19.153Z,948
2022-10-26T10:57:59.744Z,956
2022-10-26T10:58:40.293Z,964
2022-10-26T10:59:20.989Z,972
2022-10-26T11:00:01.556Z,952
2022-10-26T11:06:47.666Z,900
2022-10-26T11:07:28.310Z,892
2022-10-26T11:08:08.866Z,884
2022-10-26T11:08:49.493Z,780
2022-10-26T11:09:30.007Z,860
2022-10-26T11:10:10.583Z,904
2022-10-26T11:10:51.071Z,720
2022-10-26T11:11:31.619Z,816
2022-10-26T11:12:12.149Z,852
2022-10-26T11:12:52.954Z,964
2022-10-26T11:16:57.801Z,1028
2022-10-26T11:17:38.247Z,1032
2022-10-26T11:18:19.471Z,1040
2022-10-26T11:18:59.983Z,1072
2022-10-26T11:19:40.526Z,1108
2022-10-26T11:20:21.070Z,1080
2022-10-26T11:21:01.661Z,1040
2022-10-26T11:21:42.469Z,1052
2022-10-26T11:27:07.811Z,772
2022-10-26T11:27:48.565Z,904
2022-10-26T11:28:28.980Z,1048
2022-10-26T11:29:13.747Z,892
2022-10-26T11:30:47.462Z,1068
2022-10-26T11:36:28.928Z,996
2022-10-26T11:37:09.994Z,740
2022-10-26T11:37:51.044Z,984
2022-10-26T11:38:38.788Z,1004
2022-10-26T11:39:13.451Z,1000
2022-10-26T11:41:21.459Z,1012
2022-10-26T11:42:08.987Z,996
2022-10-26T11:42:53.450Z,1008
2022-10-26T12:32:41.497Z,1092
2022-10-26T12:33:20.263Z,1092
2022-10-26T12:34:00.781Z,1092
2022-10-26T12:34:41.343Z,1096
2022-10-26T12:35:21.803Z,1080
2022-10-26T12:36:02.929Z,1068
2022-10-26T12:36:44.086Z,1064
2022-10-26T12:43:29.479Z,1088
2022-10-26T12:44:10.129Z,1080
2022-10-26T12:44:50.579Z,1064
2022-10-26T12:45:31.088Z,1060
2022-10-26T12:46:11.476Z,1084
2022-10-26T12:46:52.237Z,1104
2022-10-26T12:47:32.820Z,1096
2022-10-26T12:48:59.574Z,1076
2022-10-26T12:49:40.273Z,1072
2022-10-26T12:50:21.248Z,1088
2022-10-26T12:51:01.869Z,1096
2022-10-26T12:51:42.350Z,1092
2022-10-26T12:52:23.726Z,1092
2022-10-26T12:53:04.244Z,1108
2022-10-26T12:58:29.476Z,1052
2022-10-26T12:59:10.016Z,1040
2022-10-26T12:59:51.845Z,1044
2022-10-26T13:00:32.164Z,1040
2022-10-26T13:01:12.849Z,1040
2022-10-26T13:01:53.346Z,1044
2022-10-26T13:02:34.917Z,1060
2022-10-26T13:06:41.410Z,1052
2022-10-26T13:07:22.058Z,1056
2022-10-26T13:10:54.527Z,1084
2022-10-26T13:11:36.660Z,1068
2022-10-26T13:12:17.765Z,1068
2022-10-26T13:12:58.873Z,1060
2022-10-26T13:15:46.712Z,1064
2022-10-26T13:19:01.991Z,1040
2022-10-26T13:19:43.026Z,1032
2022-10-26T13:20:24.090Z,1036
2022-10-26T13:23:39.136Z,1028
2022-10-26T13:24:20.356Z,1036
2022-10-26T13:25:02.459Z,1044
2022-10-26T13:25:42.641Z,1044
2022-10-26T13:26:23.727Z,1036
2022-10-26T13:29:49.243Z,1000
2022-10-26T13:30:30.534Z,992
2022-10-26T13:31:14.927Z,988
2022-10-26T13:33:59.273Z,960
2022-10-26T13:34:40.319Z,952
2022-10-26T13:35:21.724Z,940
2022-10-26T13:39:44.385Z,916
2022-10-26T13:40:26.297Z,916
2022-10-26T13:41:06.858Z,916
2022-10-26T13:41:47.471Z,912
2022-10-26T13:42:28.097Z,904
2022-10-26T13:43:08.563Z,896
2022-10-26T13:46:07.869Z,872
2022-10-26T13:46:48.026Z,860
2022-10-26T13:47:28.802Z,856
2022-10-26T13:48:09.558Z,856
2022-10-26T13:48:50.467Z,852
2022-10-26T13:49:32.454Z,844
2022-10-26T13:51:36.885Z,816
2022-10-26T13:52:57.377Z,808
2022-10-26T13:53:38.985Z,808
2022-10-26T13:54:18.462Z,800
2022-10-26T13:54:58.965Z,800
2022-10-26T13:55:39.521Z,796
2022-10-26T13:56:20.111Z,792
2022-10-26T13:57:00.636Z,792
2022-10-26T13:57:41.333Z,792
2022-10-26T13:58:21.821Z,792
2022-10-26T14:03:07.309Z,820
2022-10-26T14:03:47.896Z,824
2022-10-26T14:04:29.170Z,824
2022-10-26T14:05:09.815Z,824
2022-10-26T14:05:50.643Z,824
2022-10-26T14:06:31.075Z,828
2022-10-26T14:07:11.637Z,820
2022-10-26T14:07:54.028Z,816
2022-10-26T14:11:56.778Z,792
2022-10-26T14:12:37.856Z,800
2022-10-26T14:13:19.196Z,804
2022-10-26T14:13:59.664Z,816
2022-10-26T14:14:40.335Z,804
2022-10-26T14:15:21.312Z,796
2022-10-26T14:16:02.030Z,780
2022-10-26T14:22:06.907Z,756
2022-10-26T14:22:47.438Z,748
2022-10-26T14:23:27.956Z,740
2022-10-26T14:24:08.474Z,736
2022-10-26T14:24:48.964Z,736
2022-10-26T14:25:42.778Z,740
2022-10-26T14:26:09.955Z,736
2022-10-26T14:26:50.577Z,728
2022-10-26T14:27:31.203Z,716
2022-10-26T14:28:11.784Z,700
2022-10-26T14:32:21.683Z,672
2022-10-26T14:33:02.771Z,672
2022-10-26T14:33:43.050Z,672
2022-10-26T14:34:23.489Z,672
2022-10-26T14:35:04.029Z,672
2022-10-26T14:35:44.698Z,680
2022-10-26T14:36:25.427Z,680
2022-10-26T14:37:05.980Z,688
2022-10-26T14:42:31.387Z,756
2022-10-26T14:43:11.962Z,760
2022-10-26T14:43:52.507Z,752
2022-10-26T14:44:33.013Z,748
2022-10-26T14:45:15.259Z,744
2022-10-26T14:45:54.793Z,748
2022-10-26T14:46:35.130Z,752
2022-10-26T14:47:15.601Z,764
2022-10-26T14:47:56.174Z,796
2022-10-26T14:52:01.405Z,952
2022-10-26T14:52:42.519Z,968
2022-10-26T14:53:22.669Z,1000
2022-10-26T14:54:03.233Z,984
2022-10-26T14:54:43.842Z,1004
2022-10-26T14:55:24.479Z,1084
2022-10-26T14:56:04.965Z,1116
2022-10-26T14:56:45.477Z,1084
2022-10-26T14:57:25.998Z,1056
2022-10-26T15:02:51.408Z,1416
2022-10-26T15:03:31.686Z,1576
2022-10-26T15:04:12.195Z,1560
2022-10-26T15:04:52.849Z,1516
2022-10-26T15:05:34.789Z,1640
2022-10-26T15:06:14.129Z,1676
2022-10-26T15:06:54.675Z,1548
2022-10-26T15:07:35.259Z,1428
2022-10-26T15:08:19.632Z,1384
2022-10-26T15:08:57.123Z,1328
2022-10-26T15:15:05.497Z,904
2022-10-26T15:15:43.560Z,988
2022-10-26T15:16:22.384Z,988
2022-10-26T15:19:36.981Z,964
2022-10-26T15:20:16.887Z,892
2022-10-26T15:20:57.393Z,852
2022-10-26T15:21:38.140Z,796
2022-10-26T15:22:18.646Z,784
2022-10-26T15:22:59.093Z,796
2022-10-26T15:23:39.860Z,764
2022-10-26T15:24:20.201Z,700
2022-10-26T15:25:00.870Z,624
2022-10-26T15:27:06.097Z,524
2022-10-26T15:27:46.898Z,496
2022-10-26T15:28:27.304Z,468
2022-10-26T15:29:07.756Z,448
2022-10-26T15:30:28.744Z,428
2022-10-26T15:31:09.262Z,416
2022-10-26T15:31:49.733Z,404
2022-10-26T15:33:10.835Z,376
2022-10-26T15:40:14.084Z,292
2022-10-26T15:40:54.875Z,284
2022-10-26T15:41:36.833Z,280
2022-10-26T15:42:15.932Z,268
2022-10-26T15:42:56.434Z,264
2022-10-26T15:43:36.952Z,260
2022-10-26T15:44:17.498Z,252
2022-10-26T15:44:57.923Z,244
2022-10-26T15:45:38.382Z,244
2022-10-26T15:46:18.917Z,236
2022-10-26T15:53:03.911Z,176
2022-10-26T15:53:44.398Z,168
2022-10-26T15:54:24.906Z,164
2022-10-26T15:55:05.376Z,164
2022-10-26T15:55:45.977Z,156
2022-10-26T15:56:26.668Z,152
2022-10-26T15:57:47.975Z,144
2022-10-26T15:59:08.915Z,132
2022-10-26T16:05:54.210Z,92
2022-10-26T16:06:34.859Z,84
2022-10-26T16:07:15.307Z,80
2022-10-26T16:07:55.851Z,76
2022-10-26T16:08:36.405Z,72
2022-10-26T16:09:16.960Z,68
2022-10-26T16:09:57.629Z,68
2022-10-26T16:10:38.126Z,64
2022-10-26T16:11:18.617Z,56
2022-10-26T16:16:43.936Z,36
2022-10-26T16:17:24.552Z,36
2022-10-26T16:18:05.017Z,32
2022-10-26T16:18:45.668Z,32
2022-10-26T16:19:30.667Z,32
2022-10-26T16:20:09.142Z,28
2022-10-26T16:20:47.545Z,28
2022-10-26T16:21:28.029Z,24
2022-10-26T16:22:08.557Z,24
2022-10-26T16:22:49.275Z,20
2022-10-26T16:26:54.020Z,12
2022-10-26T16:27:34.470Z,8
2022-10-26T16:28:14.939Z,8
2022-10-26T16:28:55.568Z,8
2022-10-26T16:29:36.709Z,8
2022-10-26T16:30:18.263Z,8
2022-10-26T16:30:58.867Z,8
2022-10-26T16:37:43.803Z,4
2022-10-26T16:38:24.437Z,4
2022-10-26T16:39:05.466Z,4
2022-10-26T16:39:46.759Z,0
2022-10-26T16:40:27.014Z,0
2022-10-26T16:41:07.545Z,0
2022-10-26T16:41:48.066Z,0
2022-10-26T16:42:28.548Z,0
2022-10-26T16:43:08.998Z,0
2022-10-26T16:49:13.807Z,0
2022-10-26T16:49:55.729Z,0
2022-10-26T16:50:36.824Z,0
2022-10-26T16:51:17.807Z,0
2022-10-26T16:51:58.203Z,0
2022-10-26T16:52:38.740Z,0
2022-10-26T16:58:03.905Z,0
2022-10-26T16:58:44.544Z,0
2022-10-26T16:59:25.768Z,0
2022-10-26T17:00:06.480Z,0
2022-10-26T17:00:47.309Z,0
2022-10-26T17:01:28.710Z,0
2022-10-26T17:04:53.671Z,0
2022-10-26T17:05:34.278Z,0
2022-10-26T17:06:14.755Z,0
2022-10-26T17:06:55.313Z,0
2022-10-26T17:07:35.876Z,0
2022-10-26T17:08:16.405Z,0
2022-10-26T17:08:56.888Z,0
2022-10-26T17:09:37.855Z,0
2022-10-26T17:10:18.375Z,0
2022-10-26T17:10:58.842Z,0
2022-10-26T17:12:23.726Z,0
2022-10-26T17:13:06.155Z,0
2022-10-26T17:13:45.961Z,0
2022-10-26T17:14:26.980Z,0
2022-10-26T17:15:08.259Z,0
2022-10-26T17:15:49.535Z,0
2022-10-26T17:18:24.745Z,0
2022-10-26T17:19:12.186Z,0
2022-10-26T17:19:55.888Z,0
2022-10-26T17:20:36.375Z,0
2022-10-26T17:21:16.913Z,0
2022-10-26T17:25:19.985Z,0
2022-10-26T17:26:00.449Z,0
2022-10-26T17:26:40.931Z,0
2022-10-26T17:27:21.468Z,0
2022-10-26T17:28:02.033Z,0
2022-10-26T17:28:42.557Z,0
2022-10-26T17:29:23.003Z,0
2022-10-26T17:30:03.515Z,0
2022-10-26T17:30:43.999Z,0
2022-10-26T17:31:24.546Z,0
2022-10-26T17:38:49.964Z,0
2022-10-26T17:39:30.420Z,0
2022-10-26T17:40:10.938Z,0
2022-10-26T17:40:51.483Z,0
2022-10-26T17:42:12.415Z,0
2022-10-26T17:42:52.921Z,0
2022-10-26T17:43:33.373Z,0
2022-10-26T17:45:49.408Z,0
2022-10-26T17:46:32.069Z,0
2022-10-26T17:47:12.609Z,0
2022-10-26T17:47:53.414Z,0
2022-10-26T17:49:56.870Z,0
2022-10-26T17:50:37.885Z,0
2022-10-26T17:51:18.562Z,0
2022-10-26T17:52:00.276Z,0
2022-10-26T17:52:41.612Z,0
2022-10-26T18:34:43.861Z,0
2022-10-26T18:35:25.013Z,0
2022-10-26T18:36:05.461Z,0
2022-10-26T18:36:46.054Z,0
2022-10-26T18:37:26.773Z,0
2022-10-26T18:38:07.618Z,0
2022-10-26T18:38:48.717Z,0
2022-10-26T18:43:33.843Z,0
2022-10-26T18:44:14.442Z,0
2022-10-26T18:45:37.031Z,0
2022-10-26T18:52:13.944Z,0
2022-10-26T18:52:54.875Z,0
2022-10-26T18:53:36.449Z,0
2022-10-26T18:54:18.478Z,0
2022-10-26T18:56:40.690Z,0
2022-10-26T18:57:23.100Z,0
2022-10-26T18:58:03.860Z,0
2022-10-26T18:58:45.112Z,0
2022-10-26T19:00:09.107Z,0
2022-10-26T19:00:50.636Z,0
2022-10-26T19:01:32.445Z,0
2022-10-26T19:02:13.602Z,0
2022-10-26T19:04:58.467Z,0
2022-10-26T19:05:39.515Z,0
2022-10-26T19:06:20.653Z,0
2022-10-26T19:07:01.832Z,0
2022-10-26T19:07:42.954Z,0
2022-10-26T19:11:08.810Z,0
2022-10-26T19:14:23.252Z,0
2022-10-26T19:15:03.489Z,0
2022-10-26T19:15:44.054Z,0
2022-10-26T19:16:44.194Z,0
2022-10-26T19:17:05.088Z,0
2022-10-26T19:17:45.593Z,0
2022-10-26T19:18:26.066Z,0
2022-10-26T19:19:06.564Z,0
2022-10-26T19:19:47.230Z,0
2022-10-26T19:24:32.518Z,0
2022-10-26T19:25:13.749Z,0
2022-10-26T19:25:54.254Z,0
2022-10-26T19:26:36.883Z,0
2022-10-26T19:27:15.215Z,0
2022-10-26T19:27:55.733Z,0
2022-10-26T19:28:37.163Z,0
2022-10-26T19:33:22.255Z,0
2022-10-26T19:34:02.732Z,0
2022-10-26T19:34:43.195Z,0
2022-10-26T19:35:23.769Z,0
2022-10-26T19:36:04.203Z,0
2022-10-26T19:36:46.303Z,0
2022-10-26T19:37:28.185Z,0
2022-10-26T19:38:06.397Z,0
2022-10-26T19:38:46.882Z,0
2022-10-26T19:39:27.414Z,0
2022-10-26T19:44:52.689Z,0
2022-10-26T19:45:33.175Z,0
2022-10-26T19:46:13.628Z,0
2022-10-26T19:46:54.142Z,0
2022-10-26T19:47:34.627Z,0
2022-10-26T19:48:15.179Z,0
2022-10-26T19:48:56.811Z,0
2022-10-26T19:49:38.683Z,0
2022-10-26T19:54:22.541Z,0
2022-10-26T19:55:03.023Z,0
2022-10-26T19:55:43.543Z,0
2022-10-26T19:56:23.985Z,0
2022-10-26T19:57:04.446Z,0
2022-10-26T19:57:44.911Z,0
2022-10-26T19:58:25.439Z,0
2022-10-26T19:59:05.935Z,0
2022-10-26T19:59:46.431Z,0
2022-10-26T20:00:27.062Z,0
2022-10-26T20:01:07.448Z,0
2022-10-26T20:07:52.643Z,0
2022-10-26T20:08:33.112Z,0
2022-10-26T20:09:13.642Z,0
2022-10-26T20:09:54.088Z,0
2022-10-26T20:10:34.569Z,0
2022-10-26T20:11:15.710Z,0
2022-10-26T20:11:55.513Z,0
2022-10-26T20:12:35.982Z,0
2022-10-26T20:13:16.495Z,0
2022-10-26T20:14:37.399Z,0
2022-10-26T20:20:42.826Z,0
2022-10-26T20:23:57.103Z,0
2022-10-26T20:24:37.616Z,0
2022-10-26T20:25:18.269Z,0
2022-10-26T20:25:58.802Z,0
2022-10-26T20:26:39.246Z,0
2022-10-26T20:27:19.690Z,0
2022-10-26T20:28:00.170Z,0